Harrison Park (222) Station Data

Red Flag Warning: No
Fire Weather Zone: 258
SDGE Region: Ramona
Lat/Lon: 33.04/-116.561

Observations

Time Wind Speed/Gust Temp(F) RH Fuel Moist Fuel Temp(F) Dewpt(F) Tmax(F) Tmin(F) Accum Precip 10-min Precip SL Press(mb)
3/29 8:00am 89 13 G 20 55° 17% - - 12° 55.8° 50.9° - - 1016.0
3/29 7:50am 82 12 G 17 56° 17% - - 12° 55.8° 50.9° - - 1016.0
3/29 7:40am 78 13 G 18 55° 17% - - 11° 55.7° 50.9° - - 1016.0
3/29 7:30am 80 10 G 14 55° 17% - - 11° 55.1° 50.9° - - 1016.0
3/29 7:20am 84 10 G 14 55° 16% - - 55° 50.9° - - 1016.0
3/29 7:10am 82 11 G 15 54° 17% - - 10° 54.5° 50.9° - - 1016.0
3/29 7:00am 83 12 G 17 53° 17% - - 10° 54.1° 50.9° - - 1016.0
3/29 6:50am 80 11 G 13 53° 17% - - 10° 54.1° 50.9° - - 1016.0
3/29 6:40am 82 9 G 13 53° 17% - - 54.1° 50.9° - - 1017.0
3/29 6:30am 84 8 G 11 53° 17% - - 54.1° 50.9° - - 1017.0
3/29 6:20am 84 8 G 12 53° 17% - - 54.1° 50.9° - - 1016.0
3/29 6:10am 94 8 G 13 53° 16% - - 54.1° 50.9° - - 1016.0
3/29 6:00am 94 8 G 12 53° 17% - - 54.1° 50.9° - - 1016.0
3/29 5:50am 113 7 G 10 52° 17% - - 54.1° 50.9° - - 1017.0
3/29 5:40am 116 6 G 7 53° 16% - - 54.1° 50.9° - - 1016.0
3/29 5:30am 101 6 G 10 53° 16% - - 54.1° 50.9° - - 1016.0
3/29 5:20am 80 7 G 11 53° 16% - - 54.1° 50.9° - - 1016.0
3/29 5:10am 77 6 G 10 53° 16% - - 54.1° 50.9° - - 1016.0
3/29 5:00am 73 6 G 9 53° 16% - - 54.1° 50.9° - - 1016.0
3/29 4:50am 68 8 G 13 53° 16% - - 54.1° 50.9° - - 1016.0
3/29 4:40am 75 10 G 15 54° 15% - - 54.1° 50.9° - - 1016.0
3/29 4:30am 88 9 G 13 54° 15% - - 54.1° 50.9° - - 1016.0
3/29 4:20am 87 7 G 10 53° 15% - - 54.1° 50.9° - - 1016.0
3/29 4:10am 93 8 G 13 54° 15% - - 54.1° 50.9° - - 1016.0
3/29 4:00am 92 9 G 16 53° 15% - - 53.8° 50.9° - - 1016.0
3/29 3:50am 106 7 G 14 52° 16% - - 53.6° 50.9° - - 1016.0
3/29 3:40am 111 7 G 12 53° 16% - - 53.6° 50.9° - - 1016.0
3/29 3:30am 98 10 G 17 53° 15% - - 53.6° 50.9° - - 1016.0
3/29 3:20am 96 10 G 15 53° 15% - - 53.4° 50.9° - - 1016.0
3/29 3:10am 87 13 G 18 53° 15% - - 53.4° 50.9° - - 1016.0
3/29 3:00am 87 13 G 17 53° 15% - - 53.4° 50.9° - - 1016.0
3/29 2:50am 91 11 G 15 53° 15% - - 53.3° 50.9° - - 1016.0
3/29 2:40am 95 10 G 16 53° 16% - - 53.2° 50.9° - - 1016.0
3/29 2:30am 95 10 G 13 53° 16% - - 53° 50.9° - - 1016.0
3/29 2:20am 97 10 G 14 53° 16% - - 53° 50.9° - - 1016.0
3/29 2:10am 94 11 G 16 53° 16% - - 53° 50.9° - - 1016.0
3/29 2:00am 95 11 G 16 52° 17% - - 53° 50.9° - - 1016.0
3/29 1:50am 87 11 G 17 52° 16% - - 53° 50.9° - - 1016.0
3/29 1:40am 91 11 G 16 53° 16% - - 53° 50.9° - - 1016.0
3/29 1:30am 95 10 G 15 52° 16% - - 53° 50.9° - - 1017.0
3/29 1:20am 100 9 G 14 51° 20% - - 12° 53° 50.9° - - 1017.0
3/29 1:10am 101 7 G 12 52° 19% - - 10° 53° 51° - - 1017.0
3/29 1:00am 100 7 G 9 52° 17% - - 53° 51.7° - - 1017.0
3/29 12:50am 114 6 G 8 52° 16% - - 53° 52.2° - - 1017.0
3/29 12:40am 112 6 G 7 53° 17% - - 53° 52.3° - - 1017.0
3/29 12:30am 101 4 G 6 53° 19% - - 11° 53° 52.3° - - 1017.0
3/29 12:20am 94 5 G 7 53° 18% - - 10° 53° 52.5° - - 1017.0
3/29 12:10am 92 6 G 8 53° 16% - - 53° 52.5° - - 1017.0
3/29 12:00am 100 5 G 8 53° 17% - - 62.4° 41.1° - - 1017.0
3/28 11:50pm 108 7 G 9 52° 19% - - 11° 62.4° 41.1° - - 1017.0
3/28 11:40pm 111 7 G 9 52° 19% - - 12° 62.4° 41.1° - - 1017.0
3/28 11:30pm 103 6 G 9 53° 23% - - 16° 62.4° 41.1° - - 1017.0
3/28 11:20pm 104 5 G 8 53° 28% - - 21° 62.4° 41.1° - - 1017.0
3/28 11:10pm 105 5 G 6 53° 30% - - 23° 62.4° 41.1° - - 1017.0
3/28 11:00pm 111 6 G 7 53° 30% - - 23° 62.4° 41.1° - - 1016.0
3/28 10:50pm 103 4 G 6 53° 30% - - 22° 62.4° 41.1° - - 1016.0
3/28 10:40pm 101 4 G 6 54° 29% - - 22° 62.4° 41.1° - - 1016.0
3/28 10:30pm 111 3 G 5 53° 31% - - 23° 62.4° 41.1° - - 1016.0
3/28 10:20pm 131 2 G 3 53° 28% - - 21° 62.4° 41.1° - - 1016.0
3/28 10:10pm 148 2 G 3 54° 25% - - 19° 62.4° 41.1° - - 1016.0
3/28 10:00pm 155 1 G 3 53° 22% - - 15° 62.4° 41.1° - - 1016.0
3/28 9:50pm 269 0 G 1 53° 25% - - 19° 62.4° 41.1° - - 1016.0
3/28 9:40pm 295 0 G 2 53° 26% - - 19° 62.4° 41.1° - - 1016.0
3/28 9:30pm 344 1 G 3 53° 28% - - 21° 62.4° 41.1° - - 1016.0
3/28 9:20pm 334 3 G 4 54° 32% - - 25° 62.4° 41.1° - - 1016.0
3/28 9:10pm 316 3 G 5 53° 35% - - 26° 62.4° 41.1° - - 1016.0
3/28 9:00pm 306 2 G 4 52° 43% - - 30° 62.4° 41.1° - - 1016.0
3/28 8:50pm 316 2 G 4 53° 44% - - 31° 62.4° 41.1° - - 1016.0
3/28 8:40pm 306 2 G 4 52° 47% - - 33° 62.4° 41.1° - - 1016.0
3/28 8:30pm 317 2 G 3 50° 61% - - 37° 62.4° 41.1° - - 1016.0
3/28 8:20pm 285 2 G 3 50° 62% - - 38° 62.4° 41.1° - - 1016.0
3/28 8:10pm 307 2 G 4 50° 62% - - 38° 62.4° 41.1° - - 1016.0
3/28 8:00pm 276 2 G 4 50° 62% - - 38° 62.4° 41.1° - - 1016.0
3/28 7:50pm 293 2 G 3 50° 63% - - 38° 62.4° 41.1° - - 1016.0
3/28 7:40pm 275 3 G 5 50° 64% - - 38° 62.4° 41.1° - - 1016.0
3/28 7:30pm 279 6 G 8 50° 64% - - 38° 62.4° 41.1° - - 1016.0
3/28 7:20pm 281 6 G 8 50° 64% - - 38° 62.4° 41.1° - - 1016.0
3/28 7:10pm 264 6 G 8 51° 62% - - 38° 62.4° 41.1° - - 1015.0
3/28 7:00pm 261 7 G 10 51° 61% - - 38° 62.4° 41.1° - - 1015.0
3/28 6:50pm 262 8 G 12 52° 59% - - 38° 62.4° 41.1° - - 1015.0
3/28 6:40pm 264 10 G 14 53° 57% - - 38° 62.4° 41.1° - - 1015.0
3/28 6:30pm 263 10 G 15 53° 56% - - 38° 62.4° 41.1° - - 1014.0
3/28 6:20pm 261 11 G 14 54° 55% - - 38° 62.4° 41.1° - - 1014.0
3/28 6:10pm 258 11 G 15 54° 53% - - 38° 62.4° 41.1° - - 1014.0
3/28 6:00pm 266 12 G 16 55° 50% - - 37° 62.4° 41.1° - - 1013.0
3/28 5:50pm 271 10 G 15 56° 46% - - 36° 62.4° 41.1° - - 1013.0
3/28 5:40pm 267 10 G 15 56° 44% - - 35° 62.4° 41.1° - - 1013.0
3/28 5:30pm 252 11 G 15 57° 42% - - 34° 62.4° 41.1° - - 1013.0
3/28 5:20pm 271 10 G 15 57° 41% - - 34° 62.4° 41.1° - - 1012.0
3/28 5:10pm 281 9 G 13 58° 39% - - 33° 62.4° 41.1° - - 1012.0
3/28 5:00pm 274 8 G 12 58° 38% - - 32° 62.4° 41.1° - - 1012.0
3/28 4:50pm 269 8 G 13 58° 36% - - 31° 62.4° 41.1° - - 1012.0
3/28 4:40pm 256 9 G 13 58° 36% - - 32° 62.4° 41.1° - - 1012.0
3/28 4:30pm 265 9 G 13 59° 35% - - 31° 62.4° 41.1° - - 1012.0
3/28 4:20pm 264 8 G 14 59° 35% - - 31° 62.4° 41.1° - - 1012.0
3/28 4:10pm 271 7 G 13 59° 34% - - 31° 62.4° 41.1° - - 1012.0
3/28 4:00pm 209 4 G 10 61° 22% - - 21° 62.4° 41.1° - - 1011.0
3/28 3:50pm 62 4 G 8 60° 16% - - 14° 61.8° 41.1° - - 1011.0
3/28 3:40pm 14 2 G 8 60° 18% - - 17° 61.8° 41.1° - - 1011.0
3/28 3:30pm 75 5 G 9 59° 17% - - 15° 60.3° 41.1° - - 1012.0
3/28 3:20pm 64 4 G 9 59° 28% - - 25° 60.3° 41.1° - - 1012.0
3/28 3:10pm 262 4 G 10 58° 35% - - 31° 60.3° 41.1° - - 1012.0
3/28 3:00pm 201 5 G 10 59° 34% - - 31° 60.3° 41.1° - - 1012.0
3/28 2:50pm 84 4 G 9 59° 25% - - 23° 60.3° 41.1° - - 1012.0
3/28 2:40pm 48 4 G 8 59° 24% - - 22° 60.3° 41.1° - - 1012.0
3/28 2:30pm 298 5 G 11 59° 32% - - 29° 60.3° 41.1° - - 1013.0
3/28 2:20pm 80 3 G 9 60° 20% - - 18° 60° 41.1° - - 1013.0
3/28 2:10pm 3 2 G 5 58° 22% - - 18° 60° 41.1° - - 1013.0
3/28 2:00pm 291 4 G 8 58° 27% - - 24° 60° 41.1° - - 1013.0
3/28 1:50pm 252 4 G 12 58° 29% - - 26° 60° 41.1° - - 1013.0
3/28 1:40pm 51 3 G 8 59° 16% - - 13° 60° 41.1° - - 1013.0
3/28 1:30pm 116 6 G 10 58° 16% - - 12° 59.1° 41.1° - - 1014.0
3/28 1:20pm 112 7 G 13 57° 16% - - 12° 58.1° 41.1° - - 1014.0
3/28 1:10pm 96 7 G 13 57° 16% - - 11° 58.1° 41.1° - - 1014.0
3/28 1:00pm 100 6 G 15 57° 16% - - 11° 58.1° 41.1° - - 1014.0
3/28 12:50pm 87 4 G 11 56° 14% - - 57.4° 41.1° - - 1014.0
3/28 12:40pm 94 8 G 13 56° 16% - - 11° 56.9° 41.1° - - 1014.0
3/28 12:30pm 101 5 G 10 55° 16% - - 10° 56.9° 41.1° - - 1014.0
3/28 12:20pm 74 6 G 11 56° 15% - - 56.9° 41.1° - - 1015.0
3/28 12:10pm 54 4 G 8 55° 15% - - 56.7° 41.1° - - 1015.0
3/28 12:00pm 59 5 G 10 55° 16% - - 56.1° 41.1° - - 1015.0
3/28 11:50am 113 4 G 9 55° 17% - - 11° 56° 41.1° - - 1015.0
3/28 11:40am 93 6 G 11 53° 16% - - 54.5° 41.1° - - 1015.0
3/28 11:30am 51 6 G 12 54° 16% - - 54.5° 41.1° - - 1015.0
3/28 11:20am 56 7 G 12 53° 17% - - 10° 54.5° 41.1° - - 1015.0
3/28 11:10am 57 7 G 13 53° 18% - - 11° 54.4° 41.1° - - 1016.0
3/28 11:00am 62 8 G 12 53° 18% - - 10° 53.4° 41.1° - - 1016.0
3/28 10:50am 59 9 G 13 52° 18% - - 10° 53.3° 41.1° - - 1016.0
3/28 10:40am 75 10 G 14 52° 19% - - 11° 53.3° 41.1° - - 1016.0
3/28 10:30am 70 8 G 15 52° 21% - - 13° 53.3° 41.1° - - 1016.0
3/28 10:20am 68 10 G 14 51° 21% - - 12° 51.8° 41.1° - - 1016.0
3/28 10:10am 72 11 G 16 51° 21% - - 12° 51.8° 41.1° - - 1016.0
3/28 10:00am 77 10 G 17 51° 20% - - 11° 51.8° 41.1° - - 1016.0
3/28 9:50am 72 10 G 15 50° 22% - - 12° 51.4° 41.1° - - 1016.0
3/28 9:40am 82 12 G 17 50° 22% - - 12° 50.6° 41.1° - - 1016.0
3/28 9:30am 82 13 G 17 50° 23% - - 13° 50.6° 41.1° - - 1016.0
3/28 9:20am 77 14 G 20 50° 22% - - 13° 50.4° 41.1° - - 1015.0
3/28 9:10am 80 14 G 20 49° 23% - - 13° 49.8° 41.1° - - 1016.0
3/28 9:00am 82 11 G 16 49° 25% - - 14° 49.8° 41.1° - - 1016.0
3/28 8:50am 83 11 G 17 49° 24% - - 14° 49.3° 41.1° - - 1016.0
3/28 8:40am 89 10 G 14 48° 24% - - 14° 49.3° 41.1° - - 1016.0
3/28 8:30am 83 12 G 18 48° 23% - - 12° 48.6° 41.1° - - 1016.0
3/28 8:20am 75 15 G 21 48° 24% - - 13° 48.2° 41.1° - - 1016.0
3/28 8:10am 77 15 G 20 48° 24% - - 12° 48.1° 41.1° - - 1015.0
3/28 8:00am 81 14 G 18 48° 23% - - 12° 47.7° 41.1° - - 1016.0
3/28 7:50am 76 14 G 19 47° 24% - - 12° 47.6° 41.1° - - 1016.0
3/28 7:40am 81 13 G 20 47° 24% - - 12° 47.3° 41.1° - - 1015.0
3/28 7:30am 76 15 G 21 47° 24% - - 11° 47.1° 41.1° - - 1015.0
3/28 7:20am 79 13 G 17 46° 25% - - 13° 46.7° 41.1° - - 1015.0
3/28 7:10am 85 11 G 15 46° 26% - - 13° 46.5° 41.1° - - 1016.0
3/28 7:00am 92 10 G 14 46° 27% - - 14° 46.5° 41.1° - - 1016.0
3/28 6:50am 88 11 G 14 45° 27% - - 13° 46.5° 41.1° - - 1016.0
3/28 6:40am 87 11 G 15 45° 27% - - 13° 46.5° 41.1° - - 1016.0
3/28 6:30am 84 11 G 16 46° 24% - - 11° 46.5° 41.1° - - 1015.0
3/28 6:20am 88 8 G 13 46° 24% - - 11° 46.5° 41.1° - - 1015.0
3/28 6:10am 99 6 G 9 46° 26% - - 13° 46.3° 41.1° - - 1015.0
3/28 6:00am 111 6 G 8 45° 28% - - 14° 46.3° 41.1° - - 1015.0